sensor_id;sensor_type;location;lat;lon;timestamp;pressure;altitude;pressure_sealevel;temperature;humidity
24422;BME280;12600;53.326;-6.298;2022-07-29T00:01:44;101381.03;;;18.34;68.49
24422;BME280;12600;53.326;-6.298;2022-07-29T00:04:13;101385.41;;;18.35;68.69
24422;BME280;12600;53.326;-6.298;2022-07-29T00:06:45;101371.81;;;18.30;68.56
24422;BME280;12600;53.326;-6.298;2022-07-29T00:09:14;101385.91;;;18.37;68.60
24422;BME280;12600;53.326;-6.298;2022-07-29T00:11:44;101388.06;;;18.44;68.54
24422;BME280;12600;53.326;-6.298;2022-07-29T00:14:13;101385.66;;;18.42;68.29
24422;BME280;12600;53.326;-6.298;2022-07-29T00:16:43;101387.75;;;18.58;68.09
24422;BME280;12600;53.326;-6.298;2022-07-29T00:19:13;101378.97;;;18.56;67.78
24422;BME280;12600;53.326;-6.298;2022-07-29T00:21:43;101390.66;;;18.61;67.24
24422;BME280;12600;53.326;-6.298;2022-07-29T00:24:13;101381.63;;;18.52;66.97
24422;BME280;12600;53.326;-6.298;2022-07-29T00:26:43;101392.25;;;18.62;67.38
24422;BME280;12600;53.326;-6.298;2022-07-29T00:29:12;101399.06;;;18.65;67.04
24422;BME280;12600;53.326;-6.298;2022-07-29T00:32:01;101366.66;;;18.53;66.90
24422;BME280;12600;53.326;-6.298;2022-07-29T00:34:31;101389.41;;;18.71;66.77
24422;BME280;12600;53.326;-6.298;2022-07-29T00:37:19;101385.69;;;18.67;66.29
24422;BME280;12600;53.326;-6.298;2022-07-29T00:39:48;101387.19;;;18.77;66.04
24422;BME280;12600;53.326;-6.298;2022-07-29T00:42:18;101386.06;;;18.78;65.42
24422;BME280;12600;53.326;-6.298;2022-07-29T00:44:47;101393.31;;;18.70;65.46
24422;BME280;12600;53.326;-6.298;2022-07-29T00:47:17;101383.16;;;18.74;64.75
24422;BME280;12600;53.326;-6.298;2022-07-29T00:49:46;101383.88;;;18.71;64.80
24422;BME280;12600;53.326;-6.298;2022-07-29T00:52:16;101375.91;;;18.69;65.04
24422;BME280;12600;53.326;-6.298;2022-07-29T00:54:46;101373.25;;;18.73;64.54
24422;BME280;12600;53.326;-6.298;2022-07-29T00:57:16;101368.06;;;18.71;64.60
24422;BME280;12600;53.326;-6.298;2022-07-29T00:59:45;101360.09;;;18.70;64.27
24422;BME280;12600;53.326;-6.298;2022-07-29T01:02:15;101364.94;;;18.73;64.15
24422;BME280;12600;53.326;-6.298;2022-07-29T01:04:44;101364.00;;;18.81;64.31
24422;BME280;12600;53.326;-6.298;2022-07-29T01:07:13;101364.09;;;18.85;64.27
24422;BME280;12600;53.326;-6.298;2022-07-29T01:09:43;101364.72;;;18.78;64.34
24422;BME280;12600;53.326;-6.298;2022-07-29T01:12:18;101355.25;;;18.79;63.89
24422;BME280;12600;53.326;-6.298;2022-07-29T01:14:49;101361.69;;;18.83;63.90
24422;BME280;12600;53.326;-6.298;2022-07-29T01:17:23;101350.66;;;18.71;64.12
24422;BME280;12600;53.326;-6.298;2022-07-29T01:20:01;101368.16;;;18.75;64.10
24422;BME280;12600;53.326;-6.298;2022-07-29T01:22:54;101364.22;;;18.76;64.69
24422;BME280;12600;53.326;-6.298;2022-07-29T01:29:06;101353.41;;;18.71;64.01
24422;BME280;12600;53.326;-6.298;2022-07-29T01:31:45;101363.56;;;18.79;63.77
24422;BME280;12600;53.326;-6.298;2022-07-29T01:34:31;101351.56;;;18.75;63.98
24422;BME280;12600;53.326;-6.298;2022-07-29T01:37:12;101361.25;;;18.81;64.10
24422;BME280;12600;53.326;-6.298;2022-07-29T01:39:47;101370.56;;;18.89;63.67
24422;BME280;12600;53.326;-6.298;2022-07-29T01:42:26;101364.69;;;18.90;63.58
24422;BME280;12600;53.326;-6.298;2022-07-29T01:45:02;101332.28;;;18.66;63.17
24422;BME280;12600;53.326;-6.298;2022-07-29T01:47:40;101367.72;;;18.85;63.07
24422;BME280;12600;53.326;-6.298;2022-07-29T01:50:16;101364.22;;;18.76;62.99
24422;BME280;12600;53.326;-6.298;2022-07-29T01:52:54;101359.84;;;18.87;62.44
24422;BME280;12600;53.326;-6.298;2022-07-29T01:55:28;101373.44;;;18.92;62.69
24422;BME280;12600;53.326;-6.298;2022-07-29T01:58:02;101320.28;;;18.62;62.74
24422;BME280;12600;53.326;-6.298;2022-07-29T02:00:36;101375.31;;;18.88;62.91
24422;BME280;12600;53.326;-6.298;2022-07-29T02:03:12;101365.25;;;18.84;63.27
24422;BME280;12600;53.326;-6.298;2022-07-29T02:05:43;101335.88;;;18.67;63.38
24422;BME280;12600;53.326;-6.298;2022-07-29T02:08:16;101373.34;;;18.89;63.51
24422;BME280;12600;53.326;-6.298;2022-07-29T02:10:48;101374.72;;;18.95;63.51
24422;BME280;12600;53.326;-6.298;2022-07-29T02:13:20;101370.34;;;18.94;63.23
24422;BME280;12600;53.326;-6.298;2022-07-29T02:15:53;101373.13;;;18.94;63.61
24422;BME280;12600;53.326;-6.298;2022-07-29T02:18:24;101333.78;;;18.64;63.95
24422;BME280;12600;53.326;-6.298;2022-07-29T02:20:59;101372.31;;;18.93;64.13
24422;BME280;12600;53.326;-6.298;2022-07-29T02:23:31;101369.66;;;18.97;63.92
24422;BME280;12600;53.326;-6.298;2022-07-29T02:26:19;101361.25;;;18.93;64.28
24422;BME280;12600;53.326;-6.298;2022-07-29T02:28:52;101370.56;;;19.01;64.38
24422;BME280;12600;53.326;-6.298;2022-07-29T02:31:29;101352.22;;;18.96;64.84
24422;BME280;12600;53.326;-6.298;2022-07-29T02:34:03;101358.22;;;18.98;64.50
24422;BME280;12600;53.326;-6.298;2022-07-29T02:36:34;101368.34;;;19.07;64.59
24422;BME280;12600;53.326;-6.298;2022-07-29T02:39:05;101355.31;;;19.07;64.64
24422;BME280;12600;53.326;-6.298;2022-07-29T02:41:43;101366.97;;;19.13;64.63
24422;BME280;12600;53.326;-6.298;2022-07-29T02:44:16;101339.63;;;18.99;64.86
24422;BME280;12600;53.326;-6.298;2022-07-29T02:46:51;101365.09;;;19.17;64.59
24422;BME280;12600;53.326;-6.298;2022-07-29T02:49:37;101362.78;;;19.19;64.68
24422;BME280;12600;53.326;-6.298;2022-07-29T02:52:12;101348.28;;;19.10;64.55
24422;BME280;12600;53.326;-6.298;2022-07-29T02:54:52;101362.59;;;19.12;64.94
24422;BME280;12600;53.326;-6.298;2022-07-29T02:57:33;101357.84;;;19.12;64.56
24422;BME280;12600;53.326;-6.298;2022-07-29T03:00:25;101359.25;;;19.06;65.06
24422;BME280;12600;53.326;-6.298;2022-07-29T03:03:00;101334.56;;;19.01;64.79
24422;BME280;12600;53.326;-6.298;2022-07-29T03:05:33;101356.78;;;19.17;64.86
24422;BME280;12600;53.326;-6.298;2022-07-29T03:08:08;101367.84;;;19.17;64.00
24422;BME280;12600;53.326;-6.298;2022-07-29T03:10:40;101368.69;;;19.17;64.62
24422;BME280;12600;53.326;-6.298;2022-07-29T03:13:12;101370.19;;;19.15;64.53
24422;BME280;12600;53.326;-6.298;2022-07-29T03:15:43;101364.31;;;19.04;64.58
24422;BME280;12600;53.326;-6.298;2022-07-29T03:18:14;101363.63;;;19.07;64.37
24422;BME280;12600;53.326;-6.298;2022-07-29T03:20:44;101337.81;;;18.91;64.63
24422;BME280;12600;53.326;-6.298;2022-07-29T03:23:19;101382.06;;;19.15;64.39
24422;BME280;12600;53.326;-6.298;2022-07-29T03:25:49;101378.75;;;19.10;64.72
24422;BME280;12600;53.326;-6.298;2022-07-29T03:28:19;101360.97;;;18.98;64.60
24422;BME280;12600;53.326;-6.298;2022-07-29T03:30:54;101374.47;;;19.12;64.77
24422;BME280;12600;53.326;-6.298;2022-07-29T03:33:24;101382.41;;;19.14;65.15
24422;BME280;12600;53.326;-6.298;2022-07-29T03:35:54;101370.09;;;18.99;65.42
24422;BME280;12600;53.326;-6.298;2022-07-29T03:38:26;101384.06;;;19.03;65.99
24422;BME280;12600;53.326;-6.298;2022-07-29T03:41:01;101381.44;;;18.94;66.20
24422;BME280;12600;53.326;-6.298;2022-07-29T03:43:35;101390.75;;;18.89;67.32
24422;BME280;12600;53.326;-6.298;2022-07-29T03:46:16;101331.69;;;18.49;67.39
24422;BME280;12600;53.326;-6.298;2022-07-29T03:48:54;101389.84;;;18.73;68.21
24422;BME280;12600;53.326;-6.298;2022-07-29T03:51:25;101376.44;;;18.63;68.13
24422;BME280;12600;53.326;-6.298;2022-07-29T03:54:01;101379.22;;;18.63;68.73
24422;BME280;12600;53.326;-6.298;2022-07-29T03:56:40;101381.63;;;18.64;69.47
24422;BME280;12600;53.326;-6.298;2022-07-29T03:59:11;101375.50;;;18.59;69.21
24422;BME280;12600;53.326;-6.298;2022-07-29T04:01:43;101374.72;;;18.58;69.67
24422;BME280;12600;53.326;-6.298;2022-07-29T04:04:15;101389.84;;;18.61;70.31
24422;BME280;12600;53.326;-6.298;2022-07-29T04:06:46;101379.56;;;18.49;70.40
24422;BME280;12600;53.326;-6.298;2022-07-29T04:09:15;101388.91;;;18.57;70.14
24422;BME280;12600;53.326;-6.298;2022-07-29T04:11:45;101392.03;;;18.67;69.64
24422;BME280;12600;53.326;-6.298;2022-07-29T04:14:31;101382.78;;;18.63;70.04
24422;BME280;12600;53.326;-6.298;2022-07-29T04:17:02;101390.75;;;18.65;70.09
24422;BME280;12600;53.326;-6.298;2022-07-29T04:19:33;101375.50;;;18.59;70.03
24422;BME280;12600;53.326;-6.298;2022-07-29T04:22:02;101394.94;;;18.71;69.74
24422;BME280;12600;53.326;-6.298;2022-07-29T04:24:32;101394.00;;;18.67;70.38
24422;BME280;12600;53.326;-6.298;2022-07-29T04:27:01;101396.53;;;18.72;70.24
24422;BME280;12600;53.326;-6.298;2022-07-29T04:29:30;101384.53;;;18.68;70.21
24422;BME280;12600;53.326;-6.298;2022-07-29T04:31:59;101390.56;;;18.70;70.36
24422;BME280;12600;53.326;-6.298;2022-07-29T04:34:45;101381.75;;;18.68;71.03
24422;BME280;12600;53.326;-6.298;2022-07-29T04:37:14;101403.69;;;18.73;70.62
24422;BME280;12600;53.326;-6.298;2022-07-29T04:39:43;101391.81;;;18.72;70.62
24422;BME280;12600;53.326;-6.298;2022-07-29T04:42:13;101399.75;;;18.74;70.81
24422;BME280;12600;53.326;-6.298;2022-07-29T04:44:44;101388.25;;;18.72;71.00
24422;BME280;12600;53.326;-6.298;2022-07-29T04:47:17;101387.31;;;18.68;71.07
24422;BME280;12600;53.326;-6.298;2022-07-29T04:49:47;101395.16;;;18.78;71.04
24422;BME280;12600;53.326;-6.298;2022-07-29T04:52:17;101370.38;;;18.69;71.14
24422;BME280;12600;53.326;-6.298;2022-07-29T04:54:46;101345.53;;;18.49;71.17
24422;BME280;12600;53.326;-6.298;2022-07-29T04:57:15;101379.13;;;18.71;71.04
24422;BME280;12600;53.326;-6.298;2022-07-29T04:59:44;101388.69;;;18.74;70.97
24422;BME280;12600;53.326;-6.298;2022-07-29T05:02:14;101371.97;;;18.70;70.91
24422;BME280;12600;53.326;-6.298;2022-07-29T05:04:43;101372.22;;;18.65;70.99
24422;BME280;12600;53.326;-6.298;2022-07-29T05:07:14;101321.31;;;18.33;71.17
24422;BME280;12600;53.326;-6.298;2022-07-29T05:09:44;101371.28;;;18.73;70.94
24422;BME280;12600;53.326;-6.298;2022-07-29T05:12:13;101363.69;;;18.70;71.26
24422;BME280;12600;53.326;-6.298;2022-07-29T05:14:42;101376.25;;;18.80;71.19
24422;BME280;12600;53.326;-6.298;2022-07-29T05:17:12;101380.25;;;18.83;71.26
24422;BME280;12600;53.326;-6.298;2022-07-29T05:19:41;101377.75;;;18.78;71.33
24422;BME280;12600;53.326;-6.298;2022-07-29T05:22:16;101361.13;;;18.65;71.73
24422;BME280;12600;53.326;-6.298;2022-07-29T05:24:53;101393.56;;;18.77;71.92
24422;BME280;12600;53.326;-6.298;2022-07-29T05:27:23;101374.41;;;18.72;71.95
24422;BME280;12600;53.326;-6.298;2022-07-29T05:29:52;101382.34;;;18.73;72.41
24422;BME280;12600;53.326;-6.298;2022-07-29T05:32:22;101373.94;;;18.70;72.25
24422;BME280;12600;53.326;-6.298;2022-07-29T05:34:51;101350.84;;;18.54;72.42
24422;BME280;12600;53.326;-6.298;2022-07-29T05:37:21;101390.31;;;18.75;72.64
24422;BME280;12600;53.326;-6.298;2022-07-29T05:39:51;101381.44;;;18.69;72.63
24422;BME280;12600;53.326;-6.298;2022-07-29T05:42:26;101395.84;;;18.75;73.00
24422;BME280;12600;53.326;-6.298;2022-07-29T05:44:55;101380.38;;;18.62;73.27
24422;BME280;12600;53.326;-6.298;2022-07-29T05:47:25;101363.78;;;18.62;73.19
24422;BME280;12600;53.326;-6.298;2022-07-29T05:49:54;101383.16;;;18.74;73.27
24422;BME280;12600;53.326;-6.298;2022-07-29T05:52:25;101375.09;;;18.69;73.51
24422;BME280;12600;53.326;-6.298;2022-07-29T05:54:55;101391.13;;;18.76;73.38
24422;BME280;12600;53.326;-6.298;2022-07-29T05:57:24;101337.94;;;18.45;73.27
24422;BME280;12600;53.326;-6.298;2022-07-29T05:59:54;101396.66;;;18.88;73.22
24422;BME280;12600;53.326;-6.298;2022-07-29T06:02:23;101382.00;;;18.87;73.23
24422;BME280;12600;53.326;-6.298;2022-07-29T06:05:00;101391.56;;;19.02;73.07
24422;BME280;12600;53.326;-6.298;2022-07-29T06:07:31;101365.84;;;18.89;72.83
24422;BME280;12600;53.326;-6.298;2022-07-29T06:10:06;101389.81;;;19.10;72.73
24422;BME280;12600;53.326;-6.298;2022-07-29T06:12:35;101393.72;;;19.21;72.42
24422;BME280;12600;53.326;-6.298;2022-07-29T06:15:06;101397.41;;;19.25;72.64
24422;BME280;12600;53.326;-6.298;2022-07-29T06:17:37;101371.69;;;19.12;72.61
24422;BME280;12600;53.326;-6.298;2022-07-29T06:20:26;101387.03;;;19.22;72.49
24422;BME280;12600;53.326;-6.298;2022-07-29T06:22:59;101384.47;;;19.29;72.57
24422;BME280;12600;53.326;-6.298;2022-07-29T06:25:31;101345.50;;;19.10;72.43
24422;BME280;12600;53.326;-6.298;2022-07-29T06:28:05;101393.00;;;19.36;72.25
24422;BME280;12600;53.326;-6.298;2022-07-29T06:30:35;101393.22;;;19.43;72.32
24422;BME280;12600;53.326;-6.298;2022-07-29T06:33:04;101367.75;;;19.25;72.05
24422;BME280;12600;53.326;-6.298;2022-07-29T06:35:34;101402.91;;;19.49;72.17
24422;BME280;12600;53.326;-6.298;2022-07-29T06:38:10;101398.97;;;19.50;71.88
24422;BME280;12600;53.326;-6.298;2022-07-29T06:41:01;101401.63;;;19.59;71.92
24422;BME280;12600;53.326;-6.298;2022-07-29T06:43:33;101401.25;;;19.61;71.50
24422;BME280;12600;53.326;-6.298;2022-07-29T06:46:19;101415.91;;;19.73;71.47
24422;BME280;12600;53.326;-6.298;2022-07-29T06:48:49;101398.44;;;19.73;71.22
24422;BME280;12600;53.326;-6.298;2022-07-29T06:51:20;101413.22;;;19.77;70.76
24422;BME280;12600;53.326;-6.298;2022-07-29T06:53:52;101418.16;;;19.83;70.57
24422;BME280;12600;53.326;-6.298;2022-07-29T06:56:30;101400.00;;;19.86;70.69
24422;BME280;12600;53.326;-6.298;2022-07-29T06:59:08;101411.09;;;19.86;70.02
24422;BME280;12600;53.326;-6.298;2022-07-29T07:01:39;101403.69;;;19.90;69.81
24422;BME280;12600;53.326;-6.298;2022-07-29T07:04:10;101400.00;;;19.86;69.82
24422;BME280;12600;53.326;-6.298;2022-07-29T07:06:40;101412.22;;;19.97;69.64
24422;BME280;12600;53.326;-6.298;2022-07-29T07:09:11;101403.31;;;19.92;69.21
24422;BME280;12600;53.326;-6.298;2022-07-29T07:11:40;101398.81;;;19.87;69.09
24422;BME280;12600;53.326;-6.298;2022-07-29T07:14:09;101411.38;;;19.97;68.86
24422;BME280;12600;53.326;-6.298;2022-07-29T07:16:39;101405.38;;;19.95;68.37
24422;BME280;12600;53.326;-6.298;2022-07-29T07:19:09;101416.22;;;20.00;68.34
24422;BME280;12600;53.326;-6.298;2022-07-29T07:21:40;101419.88;;;20.04;68.44
24422;BME280;12600;53.326;-6.298;2022-07-29T07:24:11;101422.06;;;20.10;68.20
24422;BME280;12600;53.326;-6.298;2022-07-29T07:26:41;101411.69;;;20.07;67.35
24422;BME280;12600;53.326;-6.298;2022-07-29T07:29:10;101393.22;;;19.99;67.70
24422;BME280;12600;53.326;-6.298;2022-07-29T07:31:40;101413.47;;;20.16;67.78
24422;BME280;12600;53.326;-6.298;2022-07-29T07:34:10;101421.53;;;20.21;67.44
24422;BME280;12600;53.326;-6.298;2022-07-29T07:36:40;101427.38;;;20.31;67.47
24422;BME280;12600;53.326;-6.298;2022-07-29T07:39:10;101422.81;;;20.39;67.53
24422;BME280;12600;53.326;-6.298;2022-07-29T07:41:40;101415.53;;;20.47;67.38
24422;BME280;12600;53.326;-6.298;2022-07-29T07:44:09;101428.06;;;20.56;67.32
24422;BME280;12600;53.326;-6.298;2022-07-29T07:46:43;101440.31;;;20.71;66.37
24422;BME280;12600;53.326;-6.298;2022-07-29T07:49:12;101427.94;;;20.68;66.43
24422;BME280;12600;53.326;-6.298;2022-07-29T07:51:42;101413.19;;;20.64;66.51
24422;BME280;12600;53.326;-6.298;2022-07-29T07:54:19;101435.47;;;20.84;65.60
24422;BME280;12600;53.326;-6.298;2022-07-29T07:56:48;101429.66;;;20.89;65.50
24422;BME280;12600;53.326;-6.298;2022-07-29T07:59:20;101434.63;;;20.99;65.14
24422;BME280;12600;53.326;-6.298;2022-07-29T08:01:50;101441.09;;;21.03;64.92
24422;BME280;12600;53.326;-6.298;2022-07-29T08:04:23;101440.47;;;21.10;64.73
24422;BME280;12600;53.326;-6.298;2022-07-29T08:06:56;101447.69;;;21.14;64.27
24422;BME280;12600;53.326;-6.298;2022-07-29T08:09:28;101436.69;;;21.18;64.01
24422;BME280;12600;53.326;-6.298;2022-07-29T08:11:58;101436.16;;;21.28;63.25
24422;BME280;12600;53.326;-6.298;2022-07-29T08:14:30;101441.06;;;21.35;63.31
24422;BME280;12600;53.326;-6.298;2022-07-29T08:16:59;101438.56;;;21.49;63.45
24422;BME280;12600;53.326;-6.298;2022-07-29T08:19:29;101438.66;;;21.53;62.97
24422;BME280;12600;53.326;-6.298;2022-07-29T08:21:58;101433.47;;;21.51;62.10
24422;BME280;12600;53.326;-6.298;2022-07-29T08:24:29;101422.34;;;21.51;61.60
24422;BME280;12600;53.326;-6.298;2022-07-29T08:27:22;101419.09;;;21.49;60.93
24422;BME280;12600;53.326;-6.298;2022-07-29T08:30:11;101422.63;;;21.65;60.84
24422;BME280;12600;53.326;-6.298;2022-07-29T08:32:40;101401.56;;;21.64;60.74
24422;BME280;12600;53.326;-6.298;2022-07-29T08:35:22;101423.44;;;21.85;60.50
24422;BME280;12600;53.326;-6.298;2022-07-29T08:37:53;101431.94;;;21.92;59.59
24422;BME280;12600;53.326;-6.298;2022-07-29T08:40:25;101421.38;;;22.01;58.52
24422;BME280;12600;53.326;-6.298;2022-07-29T08:43:04;101410.97;;;22.18;58.93
24422;BME280;12600;53.326;-6.298;2022-07-29T08:45:43;101416.13;;;22.39;59.05
24422;BME280;12600;53.326;-6.298;2022-07-29T08:48:16;101402.88;;;22.55;57.78
24422;BME280;12600;53.326;-6.298;2022-07-29T08:50:47;101397.97;;;22.71;57.87
24422;BME280;12600;53.326;-6.298;2022-07-29T08:53:18;101397.88;;;22.91;56.98
24422;BME280;12600;53.326;-6.298;2022-07-29T08:55:49;101389.41;;;23.10;56.97
24422;BME280;12600;53.326;-6.298;2022-07-29T08:58:19;101390.47;;;23.28;56.28
24422;BME280;12600;53.326;-6.298;2022-07-29T09:00:54;101399.44;;;23.44;55.97
24422;BME280;12600;53.326;-6.298;2022-07-29T09:03:29;101413.47;;;23.82;56.05
24422;BME280;12600;53.326;-6.298;2022-07-29T09:05:59;101399.25;;;24.31;55.27
24422;BME280;12600;53.326;-6.298;2022-07-29T09:08:31;101386.00;;;24.69;53.31
24422;BME280;12600;53.326;-6.298;2022-07-29T09:11:02;101385.81;;;25.02;52.29
24422;BME280;12600;53.326;-6.298;2022-07-29T09:13:35;101396.84;;;25.36;52.41
24422;BME280;12600;53.326;-6.298;2022-07-29T09:16:06;101396.53;;;25.52;51.59
24422;BME280;12600;53.326;-6.298;2022-07-29T09:18:39;101392.56;;;25.63;50.69
24422;BME280;12600;53.326;-6.298;2022-07-29T09:21:11;101402.22;;;25.80;49.07
24422;BME280;12600;53.326;-6.298;2022-07-29T09:24:05;101397.91;;;26.01;48.72
24422;BME280;12600;53.326;-6.298;2022-07-29T09:26:40;101388.78;;;26.43;49.24
24422;BME280;12600;53.326;-6.298;2022-07-29T09:29:12;101393.97;;;26.87;48.14
24422;BME280;12600;53.326;-6.298;2022-07-29T09:31:43;101395.16;;;27.04;45.92
24422;BME280;12600;53.326;-6.298;2022-07-29T09:34:15;101404.69;;;27.31;45.81
24422;BME280;12600;53.326;-6.298;2022-07-29T09:36:47;101401.41;;;27.54;45.77
24422;BME280;12600;53.326;-6.298;2022-07-29T09:39:29;101400.41;;;27.97;42.88
24422;BME280;12600;53.326;-6.298;2022-07-29T09:42:02;101395.31;;;28.40;42.48
24422;BME280;12600;53.326;-6.298;2022-07-29T09:44:44;101399.97;;;29.06;42.32
24422;BME280;12600;53.326;-6.298;2022-07-29T09:47:14;101399.09;;;29.43;42.56
24422;BME280;12600;53.326;-6.298;2022-07-29T09:49:55;101396.81;;;29.34;40.92
24422;BME280;12600;53.326;-6.298;2022-07-29T09:52:27;101407.09;;;29.14;41.39
24422;BME280;12600;53.326;-6.298;2022-07-29T09:55:05;101408.75;;;28.63;39.58
24422;BME280;12600;53.326;-6.298;2022-07-29T09:57:37;101386.13;;;28.29;41.25
24422;BME280;12600;53.326;-6.298;2022-07-29T10:00:09;101385.94;;;27.98;41.94
24422;BME280;12600;53.326;-6.298;2022-07-29T10:02:39;101378.94;;;27.54;40.88
24422;BME280;12600;53.326;-6.298;2022-07-29T10:05:19;101399.06;;;27.39;41.95
24422;BME280;12600;53.326;-6.298;2022-07-29T10:07:52;101385.53;;;27.12;42.76
24422;BME280;12600;53.326;-6.298;2022-07-29T10:10:26;101397.94;;;26.90;43.35
24422;BME280;12600;53.326;-6.298;2022-07-29T10:12:59;101388.34;;;26.69;43.22
24422;BME280;12600;53.326;-6.298;2022-07-29T10:15:37;101382.72;;;26.27;43.89
24422;BME280;12600;53.326;-6.298;2022-07-29T10:18:09;101392.31;;;26.08;44.35
24422;BME280;12600;53.326;-6.298;2022-07-29T10:20:40;101383.84;;;25.76;44.55
24422;BME280;12600;53.326;-6.298;2022-07-29T10:23:10;101392.56;;;25.60;45.03
24422;BME280;12600;53.326;-6.298;2022-07-29T10:25:40;101390.44;;;25.35;45.82
24422;BME280;12600;53.326;-6.298;2022-07-29T10:28:14;101393.22;;;25.32;46.00
24422;BME280;12600;53.326;-6.298;2022-07-29T10:30:45;101381.22;;;25.31;46.46
24422;BME280;12600;53.326;-6.298;2022-07-29T10:33:31;101378.03;;;25.29;46.53
24422;BME280;12600;53.326;-6.298;2022-07-29T10:36:19;101389.66;;;25.42;46.55
24422;BME280;12600;53.326;-6.298;2022-07-29T10:39:02;101375.66;;;25.42;46.47
24422;BME280;12600;53.326;-6.298;2022-07-29T10:41:52;101375.66;;;25.42;46.57
24422;BME280;12600;53.326;-6.298;2022-07-29T10:44:27;101391.28;;;25.50;46.93
24422;BME280;12600;53.326;-6.298;2022-07-29T10:46:56;101392.53;;;25.56;46.79
24422;BME280;12600;53.326;-6.298;2022-07-29T10:49:26;101384.13;;;25.53;46.52
24422;BME280;12600;53.326;-6.298;2022-07-29T10:52:02;101389.72;;;25.53;46.36
24422;BME280;12600;53.326;-6.298;2022-07-29T10:54:48;101390.13;;;25.51;46.55
24422;BME280;12600;53.326;-6.298;2022-07-29T10:57:27;101391.69;;;25.45;46.43
24422;BME280;12600;53.326;-6.298;2022-07-29T11:00:32;101398.44;;;25.37;46.64
24422;BME280;12600;53.326;-6.298;2022-07-29T11:03:03;101388.38;;;25.22;47.20
24422;BME280;12600;53.326;-6.298;2022-07-29T11:05:56;101381.38;;;24.94;47.33
24422;BME280;12600;53.326;-6.298;2022-07-29T11:08:27;101390.88;;;24.79;47.76
24422;BME280;12600;53.326;-6.298;2022-07-29T11:11:35;101389.53;;;24.62;48.25
24422;BME280;12600;53.326;-6.298;2022-07-29T11:14:58;101394.56;;;24.42;49.04
24422;BME280;12600;53.326;-6.298;2022-07-29T11:18:07;101385.81;;;24.44;49.54
24422;BME280;12600;53.326;-6.298;2022-07-29T11:20:47;101382.28;;;24.50;49.72
24422;BME280;12600;53.326;-6.298;2022-07-29T11:23:21;101388.38;;;24.63;49.83
24422;BME280;12600;53.326;-6.298;2022-07-29T11:26:17;101387.72;;;24.84;49.58
24422;BME280;12600;53.326;-6.298;2022-07-29T11:29:04;101388.22;;;25.00;49.57
24422;BME280;12600;53.326;-6.298;2022-07-29T11:31:37;101391.94;;;25.12;49.78
24422;BME280;12600;53.326;-6.298;2022-07-29T11:34:23;101390.78;;;25.20;48.98
24422;BME280;12600;53.326;-6.298;2022-07-29T11:37:21;101386.03;;;25.34;48.81
24422;BME280;12600;53.326;-6.298;2022-07-29T11:40:16;101392.16;;;25.65;49.04
24422;BME280;12600;53.326;-6.298;2022-07-29T11:42:51;101373.47;;;25.83;48.87
24422;BME280;12600;53.326;-6.298;2022-07-29T11:45:24;101379.88;;;25.94;48.52
24422;BME280;12600;53.326;-6.298;2022-07-29T11:48:16;101382.25;;;25.82;48.06
24422;BME280;12600;53.326;-6.298;2022-07-29T11:51:00;101378.19;;;25.69;48.11
24422;BME280;12600;53.326;-6.298;2022-07-29T11:53:37;101376.91;;;25.48;48.12
24422;BME280;12600;53.326;-6.298;2022-07-29T11:56:09;101336.38;;;25.06;48.34
24422;BME280;12600;53.326;-6.298;2022-07-29T11:58:45;101370.31;;;25.08;48.35
24422;BME280;12600;53.326;-6.298;2022-07-29T12:01:17;101361.00;;;24.90;48.80
24422;BME280;12600;53.326;-6.298;2022-07-29T12:03:47;101364.94;;;24.78;48.89
24422;BME280;12600;53.326;-6.298;2022-07-29T12:06:19;101379.66;;;24.72;49.23
24422;BME280;12600;53.326;-6.298;2022-07-29T12:08:48;101378.75;;;24.61;49.46
24422;BME280;12600;53.326;-6.298;2022-07-29T12:11:19;101382.41;;;24.65;49.60
24422;BME280;12600;53.326;-6.298;2022-07-29T12:13:51;101339.91;;;24.45;49.68
24422;BME280;12600;53.326;-6.298;2022-07-29T12:16:21;101379.63;;;24.68;50.13
24422;BME280;12600;53.326;-6.298;2022-07-29T12:18:58;101377.28;;;24.77;50.16
24422;BME280;12600;53.326;-6.298;2022-07-29T12:21:44;101375.38;;;24.92;49.90
24422;BME280;12600;53.326;-6.298;2022-07-29T12:24:23;101367.91;;;25.07;49.78
24422;BME280;12600;53.326;-6.298;2022-07-29T12:26:57;101374.84;;;25.31;49.13
24422;BME280;12600;53.326;-6.298;2022-07-29T12:29:27;101352.88;;;25.40;49.23
24422;BME280;12600;53.326;-6.298;2022-07-29T12:32:00;101374.13;;;25.52;47.87
24422;BME280;12600;53.326;-6.298;2022-07-29T12:34:32;101370.91;;;25.50;46.21
24422;BME280;12600;53.326;-6.298;2022-07-29T12:37:03;101385.03;;;25.75;46.23
24422;BME280;12600;53.326;-6.298;2022-07-29T12:39:37;101369.78;;;25.69;44.94
24422;BME280;12600;53.326;-6.298;2022-07-29T12:42:12;101374.19;;;25.70;44.70
24422;BME280;12600;53.326;-6.298;2022-07-29T12:44:50;101367.06;;;25.97;45.41
24422;BME280;12600;53.326;-6.298;2022-07-29T12:47:20;101363.88;;;25.91;45.30
24422;BME280;12600;53.326;-6.298;2022-07-29T12:49:50;101374.28;;;25.98;45.37
24422;BME280;12600;53.326;-6.298;2022-07-29T12:52:33;101362.25;;;25.87;44.49
24422;BME280;12600;53.326;-6.298;2022-07-29T12:55:04;101359.84;;;25.78;45.50
24422;BME280;12600;53.326;-6.298;2022-07-29T12:57:45;101360.19;;;25.70;45.05
24422;BME280;12600;53.326;-6.298;2022-07-29T13:00:16;101368.63;;;25.73;45.55
24422;BME280;12600;53.326;-6.298;2022-07-29T13:02:55;101373.78;;;25.67;45.48
24422;BME280;12600;53.326;-6.298;2022-07-29T13:05:40;101364.16;;;25.61;45.59
24422;BME280;12600;53.326;-6.298;2022-07-29T13:08:18;101368.53;;;25.55;45.46
24422;BME280;12600;53.326;-6.298;2022-07-29T13:10:50;101355.75;;;25.51;45.60
24422;BME280;12600;53.326;-6.298;2022-07-29T13:13:19;101364.84;;;25.30;45.91
24422;BME280;12600;53.326;-6.298;2022-07-29T13:16:06;101361.25;;;25.33;45.67
24422;BME280;12600;53.326;-6.298;2022-07-29T13:18:36;101355.63;;;25.26;45.67
24422;BME280;12600;53.326;-6.298;2022-07-29T13:21:12;101359.66;;;25.28;45.86